sensor_id;sensor_type;location;lat;lon;timestamp;temperature;humidity
4755;DHT22;2391;47.212;7.542;2022-10-16T00:01:52;17.70;99.90
4755;DHT22;2391;47.212;7.542;2022-10-16T00:04:18;17.70;99.90
4755;DHT22;2391;47.212;7.542;2022-10-16T00:06:44;17.70;99.90
4755;DHT22;2391;47.212;7.542;2022-10-16T00:09:10;17.70;99.90
4755;DHT22;2391;47.212;7.542;2022-10-16T00:11:38;17.70;99.90
4755;DHT22;2391;47.212;7.542;2022-10-16T00:14:09;17.70;99.90
4755;DHT22;2391;47.212;7.542;2022-10-16T00:16:35;17.70;99.90
4755;DHT22;2391;47.212;7.542;2022-10-16T00:19:01;17.70;99.90
4755;DHT22;2391;47.212;7.542;2022-10-16T00:21:29;17.70;99.90
4755;DHT22;2391;47.212;7.542;2022-10-16T00:24:02;17.70;99.90
4755;DHT22;2391;47.212;7.542;2022-10-16T00:26:29;17.70;99.90
4755;DHT22;2391;47.212;7.542;2022-10-16T00:28:55;17.80;99.90
4755;DHT22;2391;47.212;7.542;2022-10-16T00:31:22;17.80;99.90
4755;DHT22;2391;47.212;7.542;2022-10-16T00:33:49;17.80;99.90
4755;DHT22;2391;47.212;7.542;2022-10-16T00:36:18;17.80;99.90
4755;DHT22;2391;47.212;7.542;2022-10-16T00:38:45;17.80;99.90
4755;DHT22;2391;47.212;7.542;2022-10-16T00:41:14;17.80;99.90
4755;DHT22;2391;47.212;7.542;2022-10-16T00:43:46;17.90;99.90
4755;DHT22;2391;47.212;7.542;2022-10-16T00:46:25;17.90;99.90
4755;DHT22;2391;47.212;7.542;2022-10-16T00:48:58;17.90;99.90
4755;DHT22;2391;47.212;7.542;2022-10-16T00:51:25;17.90;99.90
4755;DHT22;2391;47.212;7.542;2022-10-16T00:53:51;18.00;99.90
4755;DHT22;2391;47.212;7.542;2022-10-16T00:56:18;17.90;99.90
4755;DHT22;2391;47.212;7.542;2022-10-16T00:58:44;17.90;99.90
4755;DHT22;2391;47.212;7.542;2022-10-16T01:01:10;17.90;99.90
4755;DHT22;2391;47.212;7.542;2022-10-16T01:03:37;17.80;99.90
4755;DHT22;2391;47.212;7.542;2022-10-16T01:06:18;17.80;99.90
4755;DHT22;2391;47.212;7.542;2022-10-16T01:11:36;17.80;99.90
4755;DHT22;2391;47.212;7.542;2022-10-16T01:14:10;17.70;99.90
4755;DHT22;2391;47.212;7.542;2022-10-16T01:16:48;17.70;99.90
4755;DHT22;2391;47.212;7.542;2022-10-16T01:19:36;17.70;99.90
4755;DHT22;2391;47.212;7.542;2022-10-16T01:21:50;17.70;99.90
4755;DHT22;2391;47.212;7.542;2022-10-16T01:32:37;17.50;99.90
4755;DHT22;2391;47.212;7.542;2022-10-16T01:37:51;17.40;99.90
4755;DHT22;2391;47.212;7.542;2022-10-16T01:40:18;17.40;99.90
4755;DHT22;2391;47.212;7.542;2022-10-16T01:42:48;17.40;99.90
4755;DHT22;2391;47.212;7.542;2022-10-16T01:45:16;17.40;99.90
4755;DHT22;2391;47.212;7.542;2022-10-16T01:47:45;17.40;99.90
4755;DHT22;2391;47.212;7.542;2022-10-16T01:50:14;17.40;99.90
4755;DHT22;2391;47.212;7.542;2022-10-16T01:52:43;17.50;99.90
4755;DHT22;2391;47.212;7.542;2022-10-16T01:55:13;17.50;99.90
4755;DHT22;2391;47.212;7.542;2022-10-16T01:57:43;17.50;99.90
4755;DHT22;2391;47.212;7.542;2022-10-16T02:00:12;17.50;99.90
4755;DHT22;2391;47.212;7.542;2022-10-16T02:02:41;17.50;99.90
4755;DHT22;2391;47.212;7.542;2022-10-16T02:05:23;17.50;99.90
4755;DHT22;2391;47.212;7.542;2022-10-16T02:07:47;17.40;99.90
4755;DHT22;2391;47.212;7.542;2022-10-16T02:10:14;17.40;99.90
4755;DHT22;2391;47.212;7.542;2022-10-16T02:12:43;17.40;99.90
4755;DHT22;2391;47.212;7.542;2022-10-16T02:15:09;17.40;99.90
4755;DHT22;2391;47.212;7.542;2022-10-16T02:17:36;17.40;99.90
4755;DHT22;2391;47.212;7.542;2022-10-16T02:20:03;17.40;99.90
4755;DHT22;2391;47.212;7.542;2022-10-16T02:22:32;17.40;99.90
4755;DHT22;2391;47.212;7.542;2022-10-16T02:25:11;17.40;99.90
4755;DHT22;2391;47.212;7.542;2022-10-16T02:27:36;17.40;99.90
4755;DHT22;2391;47.212;7.542;2022-10-16T02:30:09;17.40;99.90
4755;DHT22;2391;47.212;7.542;2022-10-16T02:32:37;17.40;99.90
4755;DHT22;2391;47.212;7.542;2022-10-16T02:35:04;17.40;99.90
4755;DHT22;2391;47.212;7.542;2022-10-16T02:37:31;17.40;99.90
4755;DHT22;2391;47.212;7.542;2022-10-16T02:39:58;17.40;99.90
4755;DHT22;2391;47.212;7.542;2022-10-16T02:42:35;17.40;99.90
4755;DHT22;2391;47.212;7.542;2022-10-16T02:45:04;17.40;99.90
4755;DHT22;2391;47.212;7.542;2022-10-16T02:47:30;17.30;99.90
4755;DHT22;2391;47.212;7.542;2022-10-16T02:49:56;17.30;99.90
4755;DHT22;2391;47.212;7.542;2022-10-16T02:52:22;17.30;99.90
4755;DHT22;2391;47.212;7.542;2022-10-16T02:54:48;17.30;99.90
4755;DHT22;2391;47.212;7.542;2022-10-16T02:57:14;17.30;99.90
4755;DHT22;2391;47.212;7.542;2022-10-16T02:59:41;17.30;99.90
4755;DHT22;2391;47.212;7.542;2022-10-16T03:02:07;17.30;99.90
4755;DHT22;2391;47.212;7.542;2022-10-16T03:04:33;17.30;99.90
4755;DHT22;2391;47.212;7.542;2022-10-16T03:06:59;17.30;99.90
4755;DHT22;2391;47.212;7.542;2022-10-16T03:09:25;17.30;99.90
4755;DHT22;2391;47.212;7.542;2022-10-16T03:11:51;17.30;99.90
4755;DHT22;2391;47.212;7.542;2022-10-16T03:14:17;17.30;99.90
4755;DHT22;2391;47.212;7.542;2022-10-16T03:16:43;17.30;99.90
4755;DHT22;2391;47.212;7.542;2022-10-16T03:19:09;17.30;99.90
4755;DHT22;2391;47.212;7.542;2022-10-16T03:21:35;17.30;99.90
4755;DHT22;2391;47.212;7.542;2022-10-16T03:24:01;17.40;99.90
4755;DHT22;2391;47.212;7.542;2022-10-16T03:26:27;17.40;99.90
4755;DHT22;2391;47.212;7.542;2022-10-16T03:28:53;17.30;99.90
4755;DHT22;2391;47.212;7.542;2022-10-16T03:31:19;17.40;99.90
4755;DHT22;2391;47.212;7.542;2022-10-16T03:33:45;17.40;99.90
4755;DHT22;2391;47.212;7.542;2022-10-16T03:36:11;17.30;99.90
4755;DHT22;2391;47.212;7.542;2022-10-16T03:38:37;17.30;99.90
4755;DHT22;2391;47.212;7.542;2022-10-16T03:41:03;17.30;99.90
4755;DHT22;2391;47.212;7.542;2022-10-16T03:43:29;17.30;99.90
4755;DHT22;2391;47.212;7.542;2022-10-16T03:45:55;17.30;99.90
4755;DHT22;2391;47.212;7.542;2022-10-16T03:48:21;17.30;99.90
4755;DHT22;2391;47.212;7.542;2022-10-16T03:50:47;17.30;99.90
4755;DHT22;2391;47.212;7.542;2022-10-16T03:53:14;17.30;99.90
4755;DHT22;2391;47.212;7.542;2022-10-16T03:55:42;17.30;99.90
4755;DHT22;2391;47.212;7.542;2022-10-16T03:58:08;17.30;99.90
4755;DHT22;2391;47.212;7.542;2022-10-16T04:00:34;17.30;99.90
4755;DHT22;2391;47.212;7.542;2022-10-16T04:03:00;17.30;99.90
4755;DHT22;2391;47.212;7.542;2022-10-16T04:05:26;17.20;99.90
4755;DHT22;2391;47.212;7.542;2022-10-16T04:07:52;17.30;99.90
4755;DHT22;2391;47.212;7.542;2022-10-16T04:10:18;17.20;99.90
4755;DHT22;2391;47.212;7.542;2022-10-16T04:12:44;17.20;99.90
4755;DHT22;2391;47.212;7.542;2022-10-16T04:15:10;17.20;99.90
4755;DHT22;2391;47.212;7.542;2022-10-16T04:17:36;17.20;99.90
4755;DHT22;2391;47.212;7.542;2022-10-16T04:20:03;17.20;99.90
4755;DHT22;2391;47.212;7.542;2022-10-16T04:22:29;17.20;99.90
4755;DHT22;2391;47.212;7.542;2022-10-16T04:24:55;17.20;99.90
4755;DHT22;2391;47.212;7.542;2022-10-16T04:27:21;17.20;99.90
4755;DHT22;2391;47.212;7.542;2022-10-16T04:29:47;17.20;99.90
4755;DHT22;2391;47.212;7.542;2022-10-16T04:32:12;17.20;99.90
4755;DHT22;2391;47.212;7.542;2022-10-16T04:34:39;17.20;99.90
4755;DHT22;2391;47.212;7.542;2022-10-16T04:37:05;17.20;99.90
4755;DHT22;2391;47.212;7.542;2022-10-16T04:39:31;17.20;99.90
4755;DHT22;2391;47.212;7.542;2022-10-16T04:41:57;17.20;99.90
4755;DHT22;2391;47.212;7.542;2022-10-16T04:44:23;17.20;99.90
4755;DHT22;2391;47.212;7.542;2022-10-16T04:46:52;17.20;99.90
4755;DHT22;2391;47.212;7.542;2022-10-16T04:49:18;17.20;99.90
4755;DHT22;2391;47.212;7.542;2022-10-16T04:51:44;17.20;99.90
4755;DHT22;2391;47.212;7.542;2022-10-16T04:54:10;17.20;99.90
4755;DHT22;2391;47.212;7.542;2022-10-16T04:56:36;17.20;99.90
4755;DHT22;2391;47.212;7.542;2022-10-16T04:59:04;17.20;99.90
4755;DHT22;2391;47.212;7.542;2022-10-16T05:01:30;17.20;99.90
4755;DHT22;2391;47.212;7.542;2022-10-16T05:03:56;17.20;99.90
4755;DHT22;2391;47.212;7.542;2022-10-16T05:06:22;17.20;99.90
4755;DHT22;2391;47.212;7.542;2022-10-16T05:08:48;17.20;99.90
4755;DHT22;2391;47.212;7.542;2022-10-16T05:11:14;17.20;99.90
4755;DHT22;2391;47.212;7.542;2022-10-16T05:13:40;17.20;99.90
4755;DHT22;2391;47.212;7.542;2022-10-16T05:16:06;17.20;99.90
4755;DHT22;2391;47.212;7.542;2022-10-16T05:18:32;17.20;99.90
4755;DHT22;2391;47.212;7.542;2022-10-16T05:20:58;17.20;99.90
4755;DHT22;2391;47.212;7.542;2022-10-16T05:23:24;17.20;99.90
4755;DHT22;2391;47.212;7.542;2022-10-16T05:25:57;17.20;99.90
4755;DHT22;2391;47.212;7.542;2022-10-16T05:28:29;17.20;99.90
4755;DHT22;2391;47.212;7.542;2022-10-16T05:30:52;17.20;99.90
4755;DHT22;2391;47.212;7.542;2022-10-16T05:33:23;17.20;99.90
4755;DHT22;2391;47.212;7.542;2022-10-16T05:35:50;17.20;99.90
4755;DHT22;2391;47.212;7.542;2022-10-16T05:38:17;17.10;99.90
4755;DHT22;2391;47.212;7.542;2022-10-16T05:40:43;17.10;99.90
4755;DHT22;2391;47.212;7.542;2022-10-16T05:43:11;17.10;99.90
4755;DHT22;2391;47.212;7.542;2022-10-16T05:45:37;17.10;99.90
4755;DHT22;2391;47.212;7.542;2022-10-16T05:48:04;17.10;99.90
4755;DHT22;2391;47.212;7.542;2022-10-16T05:50:30;17.10;99.90
4755;DHT22;2391;47.212;7.542;2022-10-16T05:52:56;17.10;99.90
4755;DHT22;2391;47.212;7.542;2022-10-16T05:55:22;17.10;99.90
4755;DHT22;2391;47.212;7.542;2022-10-16T05:57:48;17.10;99.90
4755;DHT22;2391;47.212;7.542;2022-10-16T06:00:17;17.10;99.90
4755;DHT22;2391;47.212;7.542;2022-10-16T06:02:43;17.10;99.90
4755;DHT22;2391;47.212;7.542;2022-10-16T06:05:09;17.10;99.90
4755;DHT22;2391;47.212;7.542;2022-10-16T06:07:35;17.10;99.90
4755;DHT22;2391;47.212;7.542;2022-10-16T06:10:01;17.10;99.90
4755;DHT22;2391;47.212;7.542;2022-10-16T06:12:28;17.10;99.90
4755;DHT22;2391;47.212;7.542;2022-10-16T06:14:54;17.10;99.90
4755;DHT22;2391;47.212;7.542;2022-10-16T06:17:20;17.10;99.90
4755;DHT22;2391;47.212;7.542;2022-10-16T06:19:46;17.00;99.90
4755;DHT22;2391;47.212;7.542;2022-10-16T06:22:12;17.00;99.90
4755;DHT22;2391;47.212;7.542;2022-10-16T06:24:38;17.00;99.90
4755;DHT22;2391;47.212;7.542;2022-10-16T06:27:04;17.00;99.90
4755;DHT22;2391;47.212;7.542;2022-10-16T06:29:30;17.10;99.90
4755;DHT22;2391;47.212;7.542;2022-10-16T06:31:56;17.10;99.90
4755;DHT22;2391;47.212;7.542;2022-10-16T06:34:22;17.00;99.90
4755;DHT22;2391;47.212;7.542;2022-10-16T06:36:48;17.00;99.90
4755;DHT22;2391;47.212;7.542;2022-10-16T06:39:14;17.00;99.90
4755;DHT22;2391;47.212;7.542;2022-10-16T06:41:40;17.00;99.90
4755;DHT22;2391;47.212;7.542;2022-10-16T06:44:06;17.00;99.90
4755;DHT22;2391;47.212;7.542;2022-10-16T06:46:33;17.00;99.90
4755;DHT22;2391;47.212;7.542;2022-10-16T06:48:59;17.00;99.90
4755;DHT22;2391;47.212;7.542;2022-10-16T06:51:25;17.00;99.90
4755;DHT22;2391;47.212;7.542;2022-10-16T06:53:53;17.00;99.90
4755;DHT22;2391;47.212;7.542;2022-10-16T06:56:24;17.00;99.90
4755;DHT22;2391;47.212;7.542;2022-10-16T06:58:51;17.00;99.90
4755;DHT22;2391;47.212;7.542;2022-10-16T07:01:19;17.00;99.90
4755;DHT22;2391;47.212;7.542;2022-10-16T07:03:46;17.00;99.90
4755;DHT22;2391;47.212;7.542;2022-10-16T07:06:14;17.00;99.90
4755;DHT22;2391;47.212;7.542;2022-10-16T07:08:43;17.00;99.90
4755;DHT22;2391;47.212;7.542;2022-10-16T07:11:11;17.00;99.90
4755;DHT22;2391;47.212;7.542;2022-10-16T07:13:39;16.90;99.90
4755;DHT22;2391;47.212;7.542;2022-10-16T07:16:15;17.00;99.90
4755;DHT22;2391;47.212;7.542;2022-10-16T07:18:38;17.00;99.90
4755;DHT22;2391;47.212;7.542;2022-10-16T07:21:10;16.90;99.90
4755;DHT22;2391;47.212;7.542;2022-10-16T07:23:37;16.90;99.90
4755;DHT22;2391;47.212;7.542;2022-10-16T07:26:04;17.00;99.90
4755;DHT22;2391;47.212;7.542;2022-10-16T07:28:30;16.90;99.90
4755;DHT22;2391;47.212;7.542;2022-10-16T07:31:04;17.00;99.90
4755;DHT22;2391;47.212;7.542;2022-10-16T07:33:31;17.00;99.90
4755;DHT22;2391;47.212;7.542;2022-10-16T07:35:58;17.00;99.90
4755;DHT22;2391;47.212;7.542;2022-10-16T07:38:23;17.00;99.90
4755;DHT22;2391;47.212;7.542;2022-10-16T07:43:26;17.00;99.90
4755;DHT22;2391;47.212;7.542;2022-10-16T07:45:53;17.00;99.90
4755;DHT22;2391;47.212;7.542;2022-10-16T07:48:21;17.10;99.90
4755;DHT22;2391;47.212;7.542;2022-10-16T07:50:47;17.10;99.90
4755;DHT22;2391;47.212;7.542;2022-10-16T07:53:13;17.20;99.90
4755;DHT22;2391;47.212;7.542;2022-10-16T07:55:39;17.20;99.90
4755;DHT22;2391;47.212;7.542;2022-10-16T07:58:06;17.30;99.90
4755;DHT22;2391;47.212;7.542;2022-10-16T08:00:32;17.30;99.90
4755;DHT22;2391;47.212;7.542;2022-10-16T08:02:59;17.40;99.90
4755;DHT22;2391;47.212;7.542;2022-10-16T08:05:27;17.40;99.90
4755;DHT22;2391;47.212;7.542;2022-10-16T08:07:53;17.40;99.90
4755;DHT22;2391;47.212;7.542;2022-10-16T08:10:22;17.50;99.90
4755;DHT22;2391;47.212;7.542;2022-10-16T08:12:48;17.50;99.90
4755;DHT22;2391;47.212;7.542;2022-10-16T08:15:14;17.60;99.90
4755;DHT22;2391;47.212;7.542;2022-10-16T08:17:40;17.60;99.90
4755;DHT22;2391;47.212;7.542;2022-10-16T08:20:07;17.70;99.90
4755;DHT22;2391;47.212;7.542;2022-10-16T08:22:33;17.80;99.90
4755;DHT22;2391;47.212;7.542;2022-10-16T08:24:59;17.90;99.90
4755;DHT22;2391;47.212;7.542;2022-10-16T08:27:31;18.00;99.90
4755;DHT22;2391;47.212;7.542;2022-10-16T08:29:57;18.00;99.90
4755;DHT22;2391;47.212;7.542;2022-10-16T08:35:40;18.20;99.90
4755;DHT22;2391;47.212;7.542;2022-10-16T08:38:14;18.30;99.90
4755;DHT22;2391;47.212;7.542;2022-10-16T08:40:36;18.40;99.90
4755;DHT22;2391;47.212;7.542;2022-10-16T08:46:05;18.50;99.90
4755;DHT22;2391;47.212;7.542;2022-10-16T08:48:40;18.50;99.90
4755;DHT22;2391;47.212;7.542;2022-10-16T08:51:04;18.40;99.90
4755;DHT22;2391;47.212;7.542;2022-10-16T08:56:39;18.20;99.90
4755;DHT22;2391;47.212;7.542;2022-10-16T08:59:09;18.10;99.90
4755;DHT22;2391;47.212;7.542;2022-10-16T09:01:46;18.20;99.90
4755;DHT22;2391;47.212;7.542;2022-10-16T09:04:53;18.30;99.90
4755;DHT22;2391;47.212;7.542;2022-10-16T09:12:35;18.30;99.90
4755;DHT22;2391;47.212;7.542;2022-10-16T09:15:27;18.50;99.90
4755;DHT22;2391;47.212;7.542;2022-10-16T09:18:14;18.60;99.90
4755;DHT22;2391;47.212;7.542;2022-10-16T09:23:26;19.10;99.90
4755;DHT22;2391;47.212;7.542;2022-10-16T09:25:53;19.30;99.90
4755;DHT22;2391;47.212;7.542;2022-10-16T09:28:19;19.30;99.90
4755;DHT22;2391;47.212;7.542;2022-10-16T09:30:46;19.40;99.90
4755;DHT22;2391;47.212;7.542;2022-10-16T09:33:15;19.40;99.90
4755;DHT22;2391;47.212;7.542;2022-10-16T09:35:44;19.50;99.90
4755;DHT22;2391;47.212;7.542;2022-10-16T09:38:26;19.50;99.90
4755;DHT22;2391;47.212;7.542;2022-10-16T09:43:57;19.60;99.90
4755;DHT22;2391;47.212;7.542;2022-10-16T09:46:30;19.60;99.90
4755;DHT22;2391;47.212;7.542;2022-10-16T09:48:59;19.70;99.90
4755;DHT22;2391;47.212;7.542;2022-10-16T09:51:35;19.70;99.90
4755;DHT22;2391;47.212;7.542;2022-10-16T09:56:36;19.70;99.90
4755;DHT22;2391;47.212;7.542;2022-10-16T09:59:10;19.70;99.90
4755;DHT22;2391;47.212;7.542;2022-10-16T10:04:06;19.80;99.90
4755;DHT22;2391;47.212;7.542;2022-10-16T10:06:34;19.70;99.90
4755;DHT22;2391;47.212;7.542;2022-10-16T10:09:18;19.80;99.50
4755;DHT22;2391;47.212;7.542;2022-10-16T10:11:44;19.80;99.40
4755;DHT22;2391;47.212;7.542;2022-10-16T10:16:50;19.90;99.30
4755;DHT22;2391;47.212;7.542;2022-10-16T10:19:22;19.90;99.40
4755;DHT22;2391;47.212;7.542;2022-10-16T10:21:49;20.00;99.00
4755;DHT22;2391;47.212;7.542;2022-10-16T10:24:17;20.00;99.00
4755;DHT22;2391;47.212;7.542;2022-10-16T10:27:08;20.10;98.90
4755;DHT22;2391;47.212;7.542;2022-10-16T10:40:28;20.20;97.20
4755;DHT22;2391;47.212;7.542;2022-10-16T10:42:59;20.10;97.10
4755;DHT22;2391;47.212;7.542;2022-10-16T10:45:28;20.20;96.90
4755;DHT22;2391;47.212;7.542;2022-10-16T10:51:04;20.30;96.40
4755;DHT22;2391;47.212;7.542;2022-10-16T11:01:45;20.40;97.20
4755;DHT22;2391;47.212;7.542;2022-10-16T11:07:09;20.40;96.90
4755;DHT22;2391;47.212;7.542;2022-10-16T11:09:48;20.50;97.50
4755;DHT22;2391;47.212;7.542;2022-10-16T11:12:25;20.50;97.20
4755;DHT22;2391;47.212;7.542;2022-10-16T11:14:57;20.60;97.00
4755;DHT22;2391;47.212;7.542;2022-10-16T11:17:26;20.70;97.00
4755;DHT22;2391;47.212;7.542;2022-10-16T11:20:20;20.80;96.60
4755;DHT22;2391;47.212;7.542;2022-10-16T11:25:21;20.80;96.00
4755;DHT22;2391;47.212;7.542;2022-10-16T11:27:52;20.80;96.30
4755;DHT22;2391;47.212;7.542;2022-10-16T11:30:22;20.80;96.10
4755;DHT22;2391;47.212;7.542;2022-10-16T11:39:08;20.90;95.70
4755;DHT22;2391;47.212;7.542;2022-10-16T11:41:42;21.00;95.90
4755;DHT22;2391;47.212;7.542;2022-10-16T11:50:01;20.90;95.30
4755;DHT22;2391;47.212;7.542;2022-10-16T11:52:49;21.00;95.20
4755;DHT22;2391;47.212;7.542;2022-10-16T11:55:21;21.00;95.40
4755;DHT22;2391;47.212;7.542;2022-10-16T11:57:57;21.10;94.90
4755;DHT22;2391;47.212;7.542;2022-10-16T12:00:28;21.20;94.80
4755;DHT22;2391;47.212;7.542;2022-10-16T12:08:29;21.40;95.00
4755;DHT22;2391;47.212;7.542;2022-10-16T12:11:06;21.50;94.90
4755;DHT22;2391;47.212;7.542;2022-10-16T12:18:43;21.60;94.70
4755;DHT22;2391;47.212;7.542;2022-10-16T12:21:11;21.60;95.10
4755;DHT22;2391;47.212;7.542;2022-10-16T12:23:48;21.70;95.00
4755;DHT22;2391;47.212;7.542;2022-10-16T12:26:30;21.70;94.60
4755;DHT22;2391;47.212;7.542;2022-10-16T12:29:09;21.80;94.30
4755;DHT22;2391;47.212;7.542;2022-10-16T12:31:35;21.70;94.60
4755;DHT22;2391;47.212;7.542;2022-10-16T12:34:02;21.80;94.30
4755;DHT22;2391;47.212;7.542;2022-10-16T12:36:31;21.80;94.10
4755;DHT22;2391;47.212;7.542;2022-10-16T12:38:58;21.80;93.90
4755;DHT22;2391;47.212;7.542;2022-10-16T12:41:28;21.70;94.20
4755;DHT22;2391;47.212;7.542;2022-10-16T12:43:54;21.70;94.50
4755;DHT22;2391;47.212;7.542;2022-10-16T12:51:42;21.90;94.40
4755;DHT22;2391;47.212;7.542;2022-10-16T13:28:27;22.40;93.70
4755;DHT22;2391;47.212;7.542;2022-10-16T13:30:16;22.40;93.40
4755;DHT22;2391;47.212;7.542;2022-10-16T13:32:47;22.40;93.30
4755;DHT22;2391;47.212;7.542;2022-10-16T13:35:27;22.40;93.50
4755;DHT22;2391;47.212;7.542;2022-10-16T13:40:49;22.50;94.20
4755;DHT22;2391;47.212;7.542;2022-10-16T13:43:17;22.60;93.60
4755;DHT22;2391;47.212;7.542;2022-10-16T13:45:57;22.70;93.20
4755;DHT22;2391;47.212;7.542;2022-10-16T13:48:20;22.70;93.30
4755;DHT22;2391;47.212;7.542;2022-10-16T13:51:10;22.70;93.50
4755;DHT22;2391;47.212;7.542;2022-10-16T13:53:35;22.80;93.60
4755;DHT22;2391;47.212;7.542;2022-10-16T13:56:07;22.90;93.10
4755;DHT22;2391;47.212;7.542;2022-10-16T13:58:33;23.00;93.30
4755;DHT22;2391;47.212;7.542;2022-10-16T14:01:02;23.00;93.00
4755;DHT22;2391;47.212;7.542;2022-10-16T14:03:29;23.10;92.90
4755;DHT22;2391;47.212;7.542;2022-10-16T14:05:59;23.10;92.20
4755;DHT22;2391;47.212;7.542;2022-10-16T14:08:26;23.10;92.80
4755;DHT22;2391;47.212;7.542;2022-10-16T14:10:56;23.10;92.80
4755;DHT22;2391;47.212;7.542;2022-10-16T14:13:37;23.10;92.60
4755;DHT22;2391;47.212;7.542;2022-10-16T14:16:10;23.10;92.60
4755;DHT22;2391;47.212;7.542;2022-10-16T14:18:38;23.10;92.50
4755;DHT22;2391;47.212;7.542;2022-10-16T14:21:06;23.10;92.00
4755;DHT22;2391;47.212;7.542;2022-10-16T14:23:36;23.10;92.60
4755;DHT22;2391;47.212;7.542;2022-10-16T14:28:41;23.10;92.50
4755;DHT22;2391;47.212;7.542;2022-10-16T14:31:32;23.10;92.50
4755;DHT22;2391;47.212;7.542;2022-10-16T14:33:59;23.20;92.30
4755;DHT22;2391;47.212;7.542;2022-10-16T14:36:27;23.10;92.50
4755;DHT22;2391;47.212;7.542;2022-10-16T14:39:05;23.10;92.30
4755;DHT22;2391;47.212;7.542;2022-10-16T14:41:40;23.20;91.80
4755;DHT22;2391;47.212;7.542;2022-10-16T14:44:03;23.10;92.10
4755;DHT22;2391;47.212;7.542;2022-10-16T14:46:35;23.10;92.00
4755;DHT22;2391;47.212;7.542;2022-10-16T14:51:40;23.10;91.80
4755;DHT22;2391;47.212;7.542;2022-10-16T14:54:09;23.10;91.90
4755;DHT22;2391;47.212;7.542;2022-10-16T14:56:56;23.10;92.10
4755;DHT22;2391;47.212;7.542;2022-10-16T14:59:37;23.10;91.90
4755;DHT22;2391;47.212;7.542;2022-10-16T15:02:15;23.10;91.50
4755;DHT22;2391;47.212;7.542;2022-10-16T15:04:36;23.00;91.50
4755;DHT22;2391;47.212;7.542;2022-10-16T15:07:02;23.00;91.90
4755;DHT22;2391;47.212;7.542;2022-10-16T15:09:28;23.00;92.40
4755;DHT22;2391;47.212;7.542;2022-10-16T15:11:54;22.90;92.10
4755;DHT22;2391;47.212;7.542;2022-10-16T15:14:20;22.90;92.40
4755;DHT22;2391;47.212;7.542;2022-10-16T15:16:46;22.90;92.60
4755;DHT22;2391;47.212;7.542;2022-10-16T15:19:12;22.90;92.50
4755;DHT22;2391;47.212;7.542;2022-10-16T15:21:38;23.00;92.60
4755;DHT22;2391;47.212;7.542;2022-10-16T15:24:07;23.00;92.60
4755;DHT22;2391;47.212;7.542;2022-10-16T15:26:33;23.00;92.60
4755;DHT22;2391;47.212;7.542;2022-10-16T15:28:59;23.00;92.60
4755;DHT22;2391;47.212;7.542;2022-10-16T15:31:25;23.00;92.00
4755;DHT22;2391;47.212;7.542;2022-10-16T15:33:53;23.00;92.30
4755;DHT22;2391;47.212;7.542;2022-10-16T15:36:35;22.90;92.00
4755;DHT22;2391;47.212;7.542;2022-10-16T15:39:04;22.90;92.50
4755;DHT22;2391;47.212;7.542;2022-10-16T15:41:30;22.90;92.40
4755;DHT22;2391;47.212;7.542;2022-10-16T15:43:56;23.00;92.60
4755;DHT22;2391;47.212;7.542;2022-10-16T15:46:23;23.00;92.50
4755;DHT22;2391;47.212;7.542;2022-10-16T15:48:50;22.90;92.40
4755;DHT22;2391;47.212;7.542;2022-10-16T15:51:18;22.90;92.70
4755;DHT22;2391;47.212;7.542;2022-10-16T15:53:44;22.90;92.60
4755;DHT22;2391;47.212;7.542;2022-10-16T15:56:12;22.90;92.80
4755;DHT22;2391;47.212;7.542;2022-10-16T15:58:38;22.90;93.00
4755;DHT22;2391;47.212;7.542;2022-10-16T16:01:05;23.00;93.20
4755;DHT22;2391;47.212;7.542;2022-10-16T16:03:31;23.00;93.40
4755;DHT22;2391;47.212;7.542;2022-10-16T16:05:58;23.10;93.50
4755;DHT22;2391;47.212;7.542;2022-10-16T16:08:24;23.00;93.50
4755;DHT22;2391;47.212;7.542;2022-10-16T16:11:05;23.10;93.80
4755;DHT22;2391;47.212;7.542;2022-10-16T16:13:32;23.00;93.90
4755;DHT22;2391;47.212;7.542;2022-10-16T16:15:58;23.00;94.00
4755;DHT22;2391;47.212;7.542;2022-10-16T16:18:24;22.90;94.20
4755;DHT22;2391;47.212;7.542;2022-10-16T16:20:54;22.90;94.30
4755;DHT22;2391;47.212;7.542;2022-10-16T16:23:20;22.90;94.60
4755;DHT22;2391;47.212;7.542;2022-10-16T16:28:34;22.80;94.70
4755;DHT22;2391;47.212;7.542;2022-10-16T16:31:00;22.70;94.90
4755;DHT22;2391;47.212;7.542;2022-10-16T16:33:26;22.70;95.00
4755;DHT22;2391;47.212;7.542;2022-10-16T16:35:57;22.60;94.90
4755;DHT22;2391;47.212;7.542;2022-10-16T16:38:23;22.60;95.10
4755;DHT22;2391;47.212;7.542;2022-10-16T16:40:49;22.50;95.10
4755;DHT22;2391;47.212;7.542;2022-10-16T16:43:15;22.50;95.30
4755;DHT22;2391;47.212;7.542;2022-10-16T16:45:41;22.40;95.40
4755;DHT22;2391;47.212;7.542;2022-10-16T16:48:07;22.40;95.80
4755;DHT22;2391;47.212;7.542;2022-10-16T16:50:38;22.30;95.60
4755;DHT22;2391;47.212;7.542;2022-10-16T16:53:04;22.30;95.60
4755;DHT22;2391;47.212;7.542;2022-10-16T16:55:30;22.20;95.70
4755;DHT22;2391;47.212;7.542;2022-10-16T16:57:58;22.10;95.80
4755;DHT22;2391;47.212;7.542;2022-10-16T17:00:23;22.10;95.90
4755;DHT22;2391;47.212;7.542;2022-10-16T17:02:50;22.00;95.70
4755;DHT22;2391;47.212;7.542;2022-10-16T17:05:17;21.90;95.80
4755;DHT22;2391;47.212;7.542;2022-10-16T17:07:42;21.90;95.80
4755;DHT22;2391;47.212;7.542;2022-10-16T17:10:09;21.80;95.80
4755;DHT22;2391;47.212;7.542;2022-10-16T17:12:35;21.90;95.90
4755;DHT22;2391;47.212;7.542;2022-10-16T17:15:01;21.80;96.20
4755;DHT22;2391;47.212;7.542;2022-10-16T17:17:27;21.80;96.00
4755;DHT22;2391;47.212;7.542;2022-10-16T17:19:53;21.70;96.00
4755;DHT22;2391;47.212;7.542;2022-10-16T17:22:19;21.60;96.00
4755;DHT22;2391;47.212;7.542;2022-10-16T17:24:50;21.50;96.10
4755;DHT22;2391;47.212;7.542;2022-10-16T17:27:17;21.50;96.20
4755;DHT22;2391;47.212;7.542;2022-10-16T17:29:44;21.40;96.30
4755;DHT22;2391;47.212;7.542;2022-10-16T17:32:10;21.40;96.30
4755;DHT22;2391;47.212;7.542;2022-10-16T17:34:36;21.30;96.20
4755;DHT22;2391;47.212;7.542;2022-10-16T17:37:02;21.30;96.30
4755;DHT22;2391;47.212;7.542;2022-10-16T17:39:28;21.20;96.40
4755;DHT22;2391;47.212;7.542;2022-10-16T17:41:54;21.20;96.40
4755;DHT22;2391;47.212;7.542;2022-10-16T17:44:20;21.20;96.40
4755;DHT22;2391;47.212;7.542;2022-10-16T17:46:48;21.10;96.20
4755;DHT22;2391;47.212;7.542;2022-10-16T17:49:14;21.10;96.20
4755;DHT22;2391;47.212;7.542;2022-10-16T17:51:40;21.00;96.20
4755;DHT22;2391;47.212;7.542;2022-10-16T17:54:07;21.00;96.20
4755;DHT22;2391;47.212;7.542;2022-10-16T17:56:34;20.90;96.20
4755;DHT22;2391;47.212;7.542;2022-10-16T17:59:01;20.90;96.20
4755;DHT22;2391;47.212;7.542;2022-10-16T18:01:33;20.90;96.20
4755;DHT22;2391;47.212;7.542;2022-10-16T18:04:05;20.80;96.20
4755;DHT22;2391;47.212;7.542;2022-10-16T18:06:32;20.80;96.20
4755;DHT22;2391;47.212;7.542;2022-10-16T18:08:59;20.70;96.30
4755;DHT22;2391;47.212;7.542;2022-10-16T18:11:26;20.60;96.40
4755;DHT22;2391;47.212;7.542;2022-10-16T18:13:53;20.60;96.40
4755;DHT22;2391;47.212;7.542;2022-10-16T18:16:19;20.60;96.50
4755;DHT22;2391;47.212;7.542;2022-10-16T18:18:46;20.50;96.50
4755;DHT22;2391;47.212;7.542;2022-10-16T18:21:15;20.50;96.50
4755;DHT22;2391;47.212;7.542;2022-10-16T18:23:42;20.40;96.50
4755;DHT22;2391;47.212;7.542;2022-10-16T18:26:10;20.40;96.60
4755;DHT22;2391;47.212;7.542;2022-10-16T18:28:37;20.30;96.60
4755;DHT22;2391;47.212;7.542;2022-10-16T18:31:05;20.30;96.60
4755;DHT22;2391;47.212;7.542;2022-10-16T18:33:32;20.30;96.60
4755;DHT22;2391;47.212;7.542;2022-10-16T18:36:04;20.30;96.60